createdAt,value
2022-08-19T00:00:01.487Z,99.99
2022-08-19T00:01:01.985Z,99.99
2022-08-19T00:02:04.478Z,99.99
2022-08-19T00:03:03.709Z,99.99
2022-08-19T00:04:04.310Z,99.99
2022-08-19T00:05:05.145Z,99.99
2022-08-19T00:06:05.796Z,99.99
2022-08-19T00:07:06.549Z,99.99
2022-08-19T00:08:06.746Z,99.99
2022-08-19T00:09:07.675Z,99.99
2022-08-19T00:10:08.183Z,99.99
2022-08-19T00:11:08.086Z,99.99
2022-08-19T00:12:08.490Z,99.99
2022-08-19T00:13:08.707Z,99.99
2022-08-19T00:14:08.615Z,99.99
2022-08-19T00:15:09.252Z,99.99
2022-08-19T00:16:09.686Z,99.99
2022-08-19T00:17:09.974Z,99.99
2022-08-19T00:18:11.174Z,99.99
2022-08-19T00:19:12.117Z,99.99
2022-08-19T00:20:12.334Z,99.99
2022-08-19T00:21:13.556Z,99.99
2022-08-19T00:22:13.472Z,99.99
2022-08-19T00:23:13.643Z,99.99
2022-08-19T00:24:14.540Z,99.99
2022-08-19T00:25:15.029Z,99.99
2022-08-19T00:26:15.278Z,99.99
2022-08-19T00:27:32.120Z,99.99
2022-08-19T00:28:15.313Z,99.99
2022-08-19T00:29:15.807Z,99.99
2022-08-19T00:30:16.025Z,99.99
2022-08-19T00:31:16.347Z,99.99
2022-08-19T00:32:19.215Z,99.99
2022-08-19T00:33:16.811Z,99.99
2022-08-19T00:34:17.839Z,99.99
2022-08-19T00:35:17.753Z,99.99
2022-08-19T00:36:18.456Z,99.99
2022-08-19T00:37:19.369Z,99.99
2022-08-19T00:38:19.286Z,99.99
2022-08-19T00:39:20.060Z,99.99
2022-08-19T00:40:20.825Z,99.99
2022-08-19T00:41:20.746Z,99.99
2022-08-19T00:42:21.345Z,99.99
2022-08-19T00:43:21.563Z,99.99
2022-08-19T00:44:22.675Z,99.99
2022-08-19T00:45:21.887Z,99.99
2022-08-19T00:46:22.395Z,99.99
2022-08-19T00:47:24.554Z,99.99
2022-08-19T00:48:22.903Z,99.99
2022-08-19T00:49:23.400Z,99.99
2022-08-19T00:50:23.863Z,99.99
2022-08-19T00:51:24.103Z,99.99
2022-08-19T00:52:24.602Z,99.99
2022-08-19T00:53:24.802Z,99.99
2022-08-19T00:54:34.993Z,99.99
2022-08-19T00:55:25.816Z,99.99
2022-08-19T00:56:26.513Z,99.99
2022-08-19T00:57:27.434Z,99.99
2022-08-19T00:58:27.330Z,99.99
2022-08-19T01:00:06.899Z,99.99
2022-08-19T01:00:28.818Z,99.99
2022-08-19T01:01:29.857Z,99.99
2022-08-19T01:02:30.011Z,99.99
2022-08-19T01:03:40.311Z,99.99
2022-08-19T01:04:31.582Z,99.99
2022-08-19T01:05:31.770Z,99.99
2022-08-19T01:06:32.690Z,99.99
2022-08-19T01:07:40.890Z,99.99
2022-08-19T01:08:33.813Z,99.99
2022-08-19T01:09:34.733Z,99.99
2022-08-19T01:10:41.568Z,99.99
2022-08-19T01:11:36.482Z,99.99
2022-08-19T01:12:36.384Z,99.99
2022-08-19T01:13:55.477Z,99.99
2022-08-19T01:14:38.383Z,99.99
2022-08-19T01:15:38.872Z,99.99
2022-08-19T01:16:39.613Z,99.99
2022-08-19T01:17:39.804Z,99.99
2022-08-19T01:18:40.011Z,99.99
2022-08-19T01:19:49.343Z,99.99
2022-08-19T01:20:41.563Z,99.99
2022-08-19T01:21:42.108Z,99.99
2022-08-19T01:22:42.324Z,99.99
2022-08-19T01:23:43.237Z,99.99
2022-08-19T01:24:55.260Z,99.99
2022-08-19T01:25:44.760Z,99.99
2022-08-19T01:26:47.453Z,99.99
2022-08-19T01:27:49.318Z,99.99
2022-08-19T01:28:47.885Z,99.99
2022-08-19T01:29:47.324Z,99.99
2022-08-19T01:30:50.998Z,99.99
2022-08-19T01:31:47.194Z,99.99
2022-08-19T01:32:47.402Z,99.99
2022-08-19T01:33:47.960Z,99.99
2022-08-19T01:34:49.177Z,99.99
2022-08-19T01:35:49.492Z,99.99
2022-08-19T01:36:50.518Z,99.99
2022-08-19T01:37:51.012Z,99.99
2022-08-19T01:38:50.945Z,99.99
2022-08-19T01:39:51.704Z,99.99
2022-08-19T01:40:52.943Z,99.99
2022-08-19T01:41:53.105Z,99.99
2022-08-19T01:42:54.298Z,99.99
2022-08-19T01:44:23.334Z,99.99
2022-08-19T01:44:55.823Z,99.99
2022-08-19T01:45:56.459Z,99.99
2022-08-19T01:46:56.739Z,99.99
2022-08-19T01:48:07.650Z,99.99
2022-08-19T01:48:57.568Z,99.99
2022-08-19T01:49:58.225Z,99.99
2022-08-19T01:50:58.818Z,99.99
2022-08-19T01:51:59.739Z,99.99
2022-08-19T01:53:12.372Z,99.99
2022-08-19T01:54:01.584Z,99.99
2022-08-19T01:55:02.071Z,99.99
2022-08-19T01:56:02.288Z,99.99
2022-08-19T01:57:02.721Z,99.99
2022-08-19T01:58:02.905Z,99.99
2022-08-19T01:59:03.401Z,99.99
2022-08-19T02:00:03.616Z,99.99
2022-08-19T02:01:04.523Z,99.99
2022-08-19T02:02:04.953Z,99.99
2022-08-19T02:03:04.851Z,99.99
2022-08-19T02:04:05.770Z,99.99
2022-08-19T02:05:06.688Z,99.99
2022-08-19T02:06:07.141Z,99.99
2022-08-19T02:07:07.852Z,99.99
2022-08-19T02:08:08.176Z,99.99
2022-08-19T02:09:08.374Z,99.99
2022-08-19T02:10:17.784Z,99.99
2022-08-19T02:11:09.717Z,99.99
2022-08-19T02:12:09.914Z,99.99
2022-08-19T02:13:10.412Z,99.99
2022-08-19T02:14:11.283Z,99.99
2022-08-19T02:15:12.177Z,99.99
2022-08-19T02:16:12.803Z,99.99
2022-08-19T02:17:13.648Z,99.99
2022-08-19T02:18:13.845Z,99.99
2022-08-19T02:19:14.258Z,99.99
2022-08-19T02:20:14.881Z,99.99
2022-08-19T02:21:15.520Z,99.99
2022-08-19T02:22:16.141Z,99.99
2022-08-19T02:23:21.428Z,99.99
2022-08-19T02:24:17.920Z,99.99
2022-08-19T02:25:18.141Z,99.99
2022-08-19T02:26:18.640Z,99.99
2022-08-19T02:27:19.648Z,99.99
2022-08-19T02:28:23.986Z,99.99
2022-08-19T02:29:20.180Z,99.99
2022-08-19T02:30:20.084Z,99.99
2022-08-19T02:31:20.975Z,99.99
2022-08-19T02:32:22.007Z,99.99
2022-08-19T02:33:22.902Z,99.99
2022-08-19T02:34:23.404Z,99.99
2022-08-19T02:35:23.294Z,99.99
2022-08-19T02:36:26.692Z,99.99
2022-08-19T02:37:24.862Z,99.99
2022-08-19T02:38:25.390Z,99.99
2022-08-19T02:39:26.282Z,99.99
2022-08-19T02:40:27.536Z,99.99
2022-08-19T02:41:30.545Z,99.99
2022-08-19T02:42:28.149Z,99.99
2022-08-19T02:43:28.533Z,99.99
2022-08-19T02:44:36.761Z,99.99
2022-08-19T02:45:30.389Z,99.99
2022-08-19T02:46:31.168Z,99.99
2022-08-19T02:47:31.597Z,99.99
2022-08-19T02:48:31.798Z,99.99
2022-08-19T02:49:34.830Z,99.99
2022-08-19T02:50:33.124Z,99.99
2022-08-19T02:51:33.735Z,99.99
2022-08-19T02:52:33.654Z,99.99
2022-08-19T02:53:34.867Z,99.99
2022-08-19T02:54:35.358Z,99.99
2022-08-19T02:55:46.006Z,99.99
2022-08-19T02:56:36.311Z,99.99
2022-08-19T02:57:36.745Z,99.99
2022-08-19T02:58:37.659Z,99.99
2022-08-19T02:59:38.386Z,99.99
2022-08-19T03:00:44.783Z,99.99
2022-08-19T03:01:39.966Z,99.99
2022-08-19T03:02:40.487Z,99.99
2022-08-19T03:03:41.132Z,99.99
2022-08-19T03:04:42.050Z,99.99
2022-08-19T03:06:01.203Z,99.99
2022-08-19T03:06:42.117Z,99.99
2022-08-19T03:07:42.835Z,99.99
2022-08-19T03:08:44.049Z,99.99
2022-08-19T03:09:44.690Z,99.99
2022-08-19T03:10:45.631Z,99.99
2022-08-19T03:11:46.558Z,99.99
2022-08-19T03:12:46.865Z,99.99
2022-08-19T03:13:47.147Z,99.99
2022-08-19T03:14:48.339Z,99.99
2022-08-19T03:15:49.294Z,99.99
2022-08-19T03:16:49.511Z,99.99
2022-08-19T03:17:50.518Z,99.99
2022-08-19T03:18:51.127Z,99.99
2022-08-19T03:19:51.100Z,99.99
2022-08-19T03:20:51.599Z,99.99
2022-08-19T03:21:51.644Z,99.99
2022-08-19T03:22:53.039Z,99.99
2022-08-19T03:23:53.560Z,99.99
2022-08-19T03:24:54.460Z,99.99
2022-08-19T03:26:20.834Z,99.99
2022-08-19T03:26:55.430Z,99.99
2022-08-19T03:27:56.403Z,99.99
2022-08-19T03:29:05.012Z,99.99
2022-08-19T03:29:57.763Z,99.99
2022-08-19T03:30:59.438Z,99.99
2022-08-19T03:31:58.549Z,99.99
2022-08-19T03:33:02.623Z,99.99
2022-08-19T03:33:59.709Z,99.99
2022-08-19T03:35:00.382Z,99.99
2022-08-19T03:36:00.596Z,99.99
2022-08-19T03:37:01.522Z,99.99
2022-08-19T03:38:01.810Z,99.99
2022-08-19T03:39:04.939Z,99.99
2022-08-19T03:40:02.666Z,99.99
2022-08-19T03:41:03.676Z,99.99
2022-08-19T03:42:54.139Z,99.99
2022-08-19T03:43:12.959Z,99.99
2022-08-19T03:44:21.817Z,99.99
2022-08-19T03:45:13.769Z,99.99
2022-08-19T03:46:14.673Z,99.99
2022-08-19T03:47:15.282Z,99.99
2022-08-19T03:48:16.315Z,99.99
2022-08-19T03:49:19.668Z,99.99
2022-08-19T03:50:18.406Z,99.99
2022-08-19T03:51:18.626Z,99.99
2022-08-19T03:52:19.292Z,99.99
2022-08-19T03:53:19.508Z,99.99
2022-08-19T03:54:20.004Z,99.99
2022-08-19T03:55:20.501Z,99.99
2022-08-19T03:56:21.416Z,99.99
2022-08-19T03:57:22.076Z,99.99
2022-08-19T03:58:22.180Z,99.99
2022-08-19T03:59:22.371Z,99.99
2022-08-19T04:00:22.862Z,99.99
2022-08-19T04:01:23.111Z,99.99
2022-08-19T04:02:23.830Z,99.99
2022-08-19T04:03:24.725Z,99.99
2022-08-19T04:04:25.643Z,99.99
2022-08-19T04:05:32.729Z,99.99
2022-08-19T04:06:27.216Z,99.99
2022-08-19T04:07:27.646Z,99.99
2022-08-19T04:08:28.048Z,99.99
2022-08-19T04:09:27.989Z,99.99
2022-08-19T04:10:29.228Z,99.99
2022-08-19T04:11:48.978Z,99.99
2022-08-19T04:12:30.892Z,99.99
2022-08-19T04:13:31.090Z,99.99
2022-08-19T04:14:31.609Z,99.99
2022-08-19T04:15:31.846Z,99.99
2022-08-19T04:16:40.501Z,99.99
2022-08-19T04:17:32.397Z,99.99
2022-08-19T04:18:36.325Z,99.99
2022-08-19T04:19:34.049Z,99.99
2022-08-19T04:20:34.663Z,99.99
2022-08-19T04:21:35.160Z,99.99
2022-08-19T04:22:35.805Z,99.99
2022-08-19T04:23:37.224Z,99.99
2022-08-19T04:24:38.120Z,99.99
2022-08-19T04:25:38.744Z,99.99
2022-08-19T04:26:39.083Z,99.99
2022-08-19T04:27:40.309Z,99.99
2022-08-19T04:28:40.892Z,99.99
2022-08-19T04:29:41.091Z,99.99
2022-08-19T04:30:41.713Z,99.99
2022-08-19T04:31:42.938Z,99.99
2022-08-19T04:32:43.556Z,99.99
2022-08-19T04:33:43.717Z,99.99
2022-08-19T04:35:24.510Z,99.99
2022-08-19T04:35:45.880Z,99.99
2022-08-19T04:36:46.773Z,99.99
2022-08-19T04:37:46.977Z,99.99
2022-08-19T04:38:47.123Z,99.99
2022-08-19T04:39:48.180Z,99.99
2022-08-19T04:40:49.092Z,99.99
2022-08-19T04:41:49.584Z,99.99
2022-08-19T04:42:49.832Z,99.99
2022-08-19T04:43:50.577Z,99.99
2022-08-19T04:44:51.440Z,99.99
2022-08-19T04:45:51.472Z,99.99
2022-08-19T04:46:56.203Z,99.99
2022-08-19T04:48:26.976Z,99.99
2022-08-19T04:49:26.298Z,99.99
2022-08-19T04:50:27.223Z,99.99
2022-08-19T04:51:27.909Z,99.99
2022-08-19T04:52:28.254Z,99.99
2022-08-19T04:53:28.457Z,99.99
2022-08-19T04:54:43.110Z,99.99
2022-08-19T04:55:30.311Z,99.99
2022-08-19T04:56:30.606Z,99.99
2022-08-19T04:57:31.828Z,99.99
2022-08-19T04:58:32.748Z,99.99
2022-08-19T04:59:32.924Z,99.99
2022-08-19T05:00:33.836Z,99.99
2022-08-19T05:01:34.761Z,99.99
2022-08-19T05:02:34.974Z,99.99
2022-08-19T05:03:35.884Z,99.99
2022-08-19T05:04:36.388Z,99.99
2022-08-19T05:05:50.032Z,99.99
2022-08-19T05:06:37.228Z,99.99
2022-08-19T05:07:37.556Z,99.99
2022-08-19T05:08:38.478Z,99.99
2022-08-19T05:10:03.460Z,99.99
2022-08-19T05:10:39.379Z,99.99
2022-08-19T05:11:40.583Z,99.99
2022-08-19T05:12:40.771Z,99.99
2022-08-19T05:13:41.927Z,99.99
2022-08-19T05:14:42.922Z,99.99
2022-08-19T05:15:43.825Z,99.99
2022-08-19T05:16:44.746Z,99.99
2022-08-19T05:17:45.720Z,99.99
2022-08-19T05:18:46.344Z,99.99
2022-08-19T05:19:47.352Z,99.99
2022-08-19T05:20:49.084Z,99.99
2022-08-19T05:21:48.269Z,99.99
2022-08-19T05:22:49.312Z,99.99
2022-08-19T05:23:49.366Z,99.99
2022-08-19T05:25:14.863Z,99.99
2022-08-19T05:25:50.866Z,99.99
2022-08-19T05:26:51.765Z,99.99
2022-08-19T05:27:52.724Z,99.99
2022-08-19T05:28:58.442Z,99.99
2022-08-19T05:29:54.602Z,99.99
2022-08-19T05:30:55.087Z,99.99
2022-08-19T05:31:55.002Z,99.99
2022-08-19T05:32:59.077Z,99.99
2022-08-19T05:33:56.003Z,99.99
2022-08-19T05:34:56.490Z,99.99
2022-08-19T05:35:57.151Z,99.99
2022-08-19T05:36:58.399Z,99.99
2022-08-19T05:38:04.367Z,99.99
2022-08-19T05:38:58.997Z,99.99
2022-08-19T05:39:59.565Z,99.99
2022-08-19T05:40:59.689Z,99.99
2022-08-19T05:42:00.373Z,99.99
2022-08-19T05:43:01.264Z,99.99
2022-08-19T05:44:02.489Z,99.99
2022-08-19T05:45:03.486Z,99.99
2022-08-19T05:46:03.691Z,99.99
2022-08-19T05:47:03.918Z,99.99
2022-08-19T05:48:03.837Z,99.99
2022-08-19T05:49:04.165Z,99.99
2022-08-19T05:50:05.307Z,99.99
2022-08-19T05:51:05.936Z,99.99
2022-08-19T05:52:06.628Z,99.99
2022-08-19T05:53:06.661Z,99.99
2022-08-19T05:54:07.159Z,99.99
2022-08-19T05:55:07.360Z,99.99
2022-08-19T05:56:07.564Z,99.99
2022-08-19T05:57:07.768Z,99.99
2022-08-19T05:58:08.158Z,99.99
2022-08-19T05:59:08.721Z,99.99
2022-08-19T06:00:09.142Z,99.99
2022-08-19T06:01:09.754Z,99.99
2022-08-19T06:02:10.016Z,99.99
2022-08-19T06:03:18.798Z,99.99
2022-08-19T06:04:11.003Z,99.99
2022-08-19T06:05:12.300Z,99.99
2022-08-19T06:06:12.521Z,99.99
2022-08-19T06:07:18.094Z,99.99
2022-08-19T06:08:13.162Z,99.99
2022-08-19T06:09:13.897Z,99.99
2022-08-19T06:10:14.435Z,99.99
2022-08-19T06:11:14.380Z,99.99
2022-08-19T06:12:14.574Z,99.99
2022-08-19T06:13:15.522Z,99.99
2022-08-19T06:14:22.107Z,99.99
2022-08-19T06:15:16.844Z,99.99
2022-08-19T06:16:17.064Z,99.99
2022-08-19T06:17:17.270Z,99.99
2022-08-19T06:18:18.268Z,99.99
2022-08-19T06:19:18.485Z,99.99
2022-08-19T06:20:29.822Z,99.99
2022-08-19T06:21:20.339Z,99.99
2022-08-19T06:22:20.539Z,99.99
2022-08-19T06:23:24.346Z,99.99
2022-08-19T06:24:21.406Z,99.99
2022-08-19T06:25:22.027Z,99.99
2022-08-19T06:26:22.496Z,99.99
2022-08-19T06:27:23.448Z,99.99
2022-08-19T06:28:24.771Z,99.99
2022-08-19T06:29:29.601Z,99.99
2022-08-19T06:30:25.673Z,99.99
2022-08-19T06:31:26.143Z,99.99
2022-08-19T06:32:27.375Z,99.99
2022-08-19T06:33:27.266Z,99.99
2022-08-19T06:34:27.978Z,99.99
2022-08-19T06:35:29.001Z,99.99
2022-08-19T06:36:31.100Z,99.99
2022-08-19T06:37:30.286Z,99.99
2022-08-19T06:38:31.013Z,99.99
2022-08-19T06:39:30.959Z,99.99
2022-08-19T06:40:31.904Z,99.99
2022-08-19T06:41:32.789Z,99.99
2022-08-19T06:42:33.138Z,99.99
2022-08-19T06:43:34.565Z,99.99
2022-08-19T06:44:37.279Z,99.99
2022-08-19T06:45:40.907Z,99.99
2022-08-19T06:46:40.336Z,99.99
2022-08-19T06:47:35.973Z,99.99
2022-08-19T06:48:39.496Z,99.99
2022-08-19T06:49:37.692Z,99.99
2022-08-19T06:50:39.385Z,99.99
2022-08-19T06:51:42.384Z,99.99
2022-08-19T06:52:39.672Z,99.99
2022-08-19T06:53:39.107Z,99.99
2022-08-19T06:55:01.605Z,99.99
2022-08-19T06:55:41.838Z,99.99
2022-08-19T06:56:40.760Z,99.99
2022-08-19T06:57:40.969Z,99.99
2022-08-19T06:58:41.083Z,99.99
2022-08-19T06:59:41.278Z,99.99
2022-08-19T07:00:42.440Z,99.99
2022-08-19T07:01:43.442Z,99.99
2022-08-19T07:02:46.255Z,99.99
2022-08-19T07:03:45.206Z,99.99
2022-08-19T07:04:47.738Z,99.99
2022-08-19T07:05:50.751Z,99.99
2022-08-19T07:06:55.219Z,99.99
2022-08-19T07:07:48.599Z,99.99
2022-08-19T07:08:49.311Z,99.99
2022-08-19T07:09:54.387Z,99.99
2022-08-19T07:10:50.682Z,99.99
2022-08-19T07:11:51.033Z,99.99
2022-08-19T07:12:51.898Z,99.99
2022-08-19T07:13:54.151Z,99.99
2022-08-19T07:14:53.801Z,99.99
2022-08-19T07:15:53.945Z,99.99
2022-08-19T07:16:54.849Z,99.99
2022-08-19T07:17:58.028Z,99.99
2022-08-19T07:18:56.083Z,99.99
2022-08-19T07:20:05.325Z,99.99
2022-08-19T07:21:05.511Z,99.99
2022-08-19T07:22:06.015Z,99.99
2022-08-19T07:23:16.204Z,99.99
2022-08-19T07:24:10.875Z,99.99
2022-08-19T07:25:08.375Z,99.99
2022-08-19T07:26:08.304Z,99.99
2022-08-19T07:27:15.105Z,99.99
2022-08-19T07:28:09.590Z,99.99
2022-08-19T07:29:10.187Z,99.99
2022-08-19T07:30:11.538Z,99.99
2022-08-19T07:31:11.503Z,99.99
2022-08-19T07:32:17.083Z,99.99
2022-08-19T07:33:11.305Z,99.99
2022-08-19T07:34:11.668Z,99.99
2022-08-19T07:35:12.161Z,99.99
2022-08-19T07:36:13.206Z,99.99
2022-08-19T07:37:12.937Z,99.99
2022-08-19T07:38:14.007Z,99.99
2022-08-19T07:39:15.202Z,99.99
2022-08-19T07:40:15.801Z,99.99
2022-08-19T07:41:16.587Z,99.99
2022-08-19T07:42:18.710Z,99.99
2022-08-19T07:43:22.421Z,99.99
2022-08-19T07:44:17.676Z,99.99
2022-08-19T07:45:18.050Z,99.99
2022-08-19T07:46:19.251Z,99.99
2022-08-19T07:47:54.562Z,99.99
2022-08-19T07:48:20.329Z,99.99
2022-08-19T07:49:20.525Z,99.99
2022-08-19T07:50:21.501Z,99.99
2022-08-19T07:51:41.743Z,99.99
2022-08-19T07:52:22.668Z,99.99
2022-08-19T07:53:22.867Z,99.99
2022-08-19T07:54:23.359Z,99.99
2022-08-19T07:55:48.415Z,99.99
2022-08-19T07:56:24.336Z,99.99
2022-08-19T07:57:24.532Z,99.99
2022-08-19T07:58:25.188Z,99.99
2022-08-19T07:59:26.128Z,99.99
2022-08-19T08:00:29.528Z,99.99
2022-08-19T08:01:27.948Z,99.99
2022-08-19T08:02:28.441Z,99.99
2022-08-19T08:03:28.940Z,99.99
2022-08-19T08:04:28.976Z,99.99
2022-08-19T08:05:29.471Z,99.99
2022-08-19T08:06:29.790Z,99.99
2022-08-19T08:07:36.899Z,99.99
2022-08-19T08:08:32.812Z,99.99
2022-08-19T08:09:31.276Z,99.99
2022-08-19T08:10:31.917Z,99.99
2022-08-19T08:11:35.007Z,99.99
2022-08-19T08:12:40.830Z,99.99
2022-08-19T08:13:33.115Z,99.99
2022-08-19T08:14:35.376Z,99.99
2022-08-19T08:15:37.548Z,99.99
2022-08-19T08:16:34.743Z,99.99
2022-08-19T08:17:53.777Z,99.99
2022-08-19T08:18:35.750Z,99.99
2022-08-19T08:19:35.388Z,99.99
2022-08-19T08:20:35.835Z,99.99
2022-08-19T08:21:35.986Z,99.99
2022-08-19T08:22:36.982Z,99.99
2022-08-19T08:23:39.776Z,99.99
2022-08-19T08:24:38.152Z,99.99
2022-08-19T08:25:40.478Z,99.99
2022-08-19T08:26:40.037Z,99.99
2022-08-19T08:27:39.610Z,99.99
2022-08-19T08:28:39.988Z,99.99
2022-08-19T08:29:40.545Z,99.99
2022-08-19T08:30:41.515Z,99.99
2022-08-19T08:31:42.035Z,99.99
2022-08-19T08:32:43.620Z,99.99
2022-08-19T08:33:43.992Z,99.99
2022-08-19T08:34:44.737Z,99.99
2022-08-19T08:35:45.394Z,99.99
2022-08-19T08:36:46.398Z,99.99
2022-08-19T08:37:47.370Z,99.99
2022-08-19T08:38:47.890Z,99.99
2022-08-19T08:39:48.322Z,99.99
2022-08-19T08:40:48.538Z,99.99
2022-08-19T08:41:49.285Z,99.99
2022-08-19T08:42:50.086Z,99.99
2022-08-19T08:43:50.303Z,99.99
2022-08-19T08:45:58.852Z,99.99
2022-08-19T08:46:53.231Z,99.99
2022-08-19T08:47:54.419Z,99.99
2022-08-19T08:48:57.980Z,99.99
2022-08-19T08:49:56.884Z,99.99
2022-08-19T08:50:54.764Z,99.99
2022-08-19T08:52:05.232Z,99.99
2022-08-19T08:52:55.714Z,99.99
2022-08-19T08:54:01.393Z,99.99
2022-08-19T08:55:00.810Z,99.99
2022-08-19T08:55:57.553Z,99.99
2022-08-19T08:56:58.874Z,99.99
2022-08-19T08:57:59.372Z,99.99
2022-08-19T08:59:00.115Z,99.99
2022-08-19T09:00:00.614Z,99.99
2022-08-19T09:01:01.507Z,99.99
2022-08-19T09:02:01.832Z,99.99
2022-08-19T09:03:02.303Z,99.99
2022-08-19T09:04:08.305Z,99.99
2022-08-19T09:05:04.091Z,99.99
2022-08-19T09:06:04.519Z,99.99
2022-08-19T09:07:18.067Z,99.99
2022-08-19T09:08:06.822Z,99.99
2022-08-19T09:09:11.682Z,99.99
2022-08-19T09:10:07.039Z,99.99
2022-08-19T09:11:10.907Z,99.99
2022-08-19T09:12:33.253Z,99.99
2022-08-19T09:13:37.427Z,99.99
2022-08-19T09:14:55.228Z,99.99
2022-08-19T09:15:38.887Z,99.99
2022-08-19T09:16:35.781Z,99.99
2022-08-19T09:17:36.702Z,99.99
2022-08-19T09:18:37.191Z,99.99
2022-08-19T09:19:38.304Z,99.99
2022-08-19T09:20:38.355Z,99.99
2022-08-19T09:21:39.756Z,99.99
2022-08-19T09:22:39.486Z,99.99
2022-08-19T09:23:41.349Z,99.99
2022-08-19T09:24:40.342Z,99.99
2022-08-19T09:25:41.278Z,99.99
2022-08-19T09:26:57.722Z,99.99
2022-08-19T09:27:48.953Z,99.99
2022-08-19T09:28:49.368Z,99.99
2022-08-19T09:29:48.722Z,99.99
2022-08-19T09:30:49.540Z,99.99
2022-08-19T09:31:49.795Z,99.99
2022-08-19T09:32:52.996Z,99.99
2022-08-19T09:33:52.266Z,99.99
2022-08-19T09:34:56.006Z,99.99
2022-08-19T09:35:58.702Z,99.99
2022-08-19T09:36:53.049Z,99.99
2022-08-19T09:37:57.301Z,99.99
2022-08-19T09:38:54.705Z,99.99
2022-08-19T09:39:55.072Z,99.99
2022-08-19T09:40:56.441Z,99.99
2022-08-19T09:41:56.531Z,99.99
2022-08-19T09:43:15.493Z,99.99
2022-08-19T09:44:07.990Z,99.99
2022-08-19T09:45:10.765Z,99.99
2022-08-19T09:46:08.481Z,99.99
2022-08-19T09:47:09.046Z,99.99
2022-08-19T09:48:10.021Z,99.99
2022-08-19T09:49:12.042Z,99.99
2022-08-19T09:50:10.711Z,99.99
2022-08-19T09:51:11.820Z,99.99
2022-08-19T09:52:11.601Z,99.99
2022-08-19T09:53:13.128Z,99.99
2022-08-19T09:54:16.967Z,99.99
2022-08-19T09:55:14.405Z,99.99
2022-08-19T09:56:14.687Z,99.99
2022-08-19T09:57:15.599Z,99.99
2022-08-19T09:58:16.102Z,99.99
2022-08-19T09:59:16.210Z,99.99
2022-08-19T10:00:17.135Z,99.99
2022-08-19T10:01:17.551Z,99.99
2022-08-19T10:03:18.272Z,99.99
2022-08-19T10:04:25.688Z,99.99
2022-08-19T10:07:23.034Z,99.99
2022-08-19T10:08:31.850Z,99.99
2022-08-19T10:09:39.292Z,99.99
2022-08-19T10:10:28.453Z,99.99
2022-08-19T10:12:32.210Z,99.99
2022-08-19T10:13:30.233Z,99.99
2022-08-19T10:14:30.735Z,99.99
2022-08-19T10:15:34.875Z,99.99
2022-08-19T10:16:37.189Z,99.99
2022-08-19T10:17:38.918Z,99.99
2022-08-19T10:18:37.401Z,99.99
2022-08-19T10:19:38.543Z,99.99
2022-08-19T10:20:38.644Z,99.99
2022-08-19T10:21:40.466Z,99.99
2022-08-19T10:22:41.354Z,99.99
2022-08-19T10:23:55.717Z,99.99
2022-08-19T10:24:41.391Z,99.99
2022-08-19T10:25:43.853Z,99.99
2022-08-19T10:26:43.428Z,99.99
2022-08-19T10:27:47.888Z,99.99
2022-08-19T10:28:48.187Z,99.99
2022-08-19T10:29:51.772Z,99.99
2022-08-19T10:30:47.636Z,99.99
2022-08-19T10:32:09.581Z,99.99
2022-08-19T10:32:51.710Z,99.99
2022-08-19T10:33:59.112Z,99.99
2022-08-19T10:34:57.145Z,99.99
2022-08-19T10:36:02.658Z,99.99
2022-08-19T10:37:01.725Z,99.99
2022-08-19T10:38:07.642Z,99.99
2022-08-19T10:39:07.761Z,99.99
2022-08-19T10:40:08.368Z,99.99
2022-08-19T10:41:08.407Z,99.99
2022-08-19T10:42:08.615Z,99.99
2022-08-19T10:43:09.688Z,99.99
2022-08-19T10:44:10.972Z,99.99
2022-08-19T10:45:11.769Z,99.99
2022-08-19T10:46:22.011Z,99.99
2022-08-19T10:47:31.673Z,99.99
2022-08-19T10:48:17.298Z,99.99
2022-08-19T10:49:14.173Z,99.99
2022-08-19T10:50:17.031Z,99.99
2022-08-19T10:51:22.699Z,99.99
2022-08-19T10:52:25.983Z,99.99
2022-08-19T10:53:16.151Z,99.21
2022-08-19T10:54:21.009Z,98.78
2022-08-19T10:55:17.004Z,98.68
2022-08-19T10:56:17.959Z,98.1
2022-08-19T10:57:18.311Z,95.78
2022-08-19T10:58:19.005Z,95.54
2022-08-19T10:59:19.751Z,96.02
2022-08-19T11:00:20.369Z,96.6
2022-08-19T11:01:21.128Z,96.5
2022-08-19T11:02:21.764Z,97.28
2022-08-19T11:03:22.725Z,97.38
2022-08-19T11:04:28.834Z,98.25
2022-08-19T11:05:24.231Z,98.25
2022-08-19T11:06:24.885Z,98.83
2022-08-19T11:07:25.835Z,98.44
2022-08-19T11:08:29.234Z,98.83
2022-08-19T11:09:33.511Z,98.58
2022-08-19T11:10:27.967Z,97.62
2022-08-19T11:11:28.611Z,98.78
2022-08-19T11:12:28.630Z,97.91
2022-08-19T11:13:29.135Z,97.33
2022-08-19T11:14:33.959Z,97.62
2022-08-19T11:15:29.528Z,97.42
2022-08-19T11:16:30.022Z,97.13
2022-08-19T11:17:30.255Z,97.13
2022-08-19T11:18:30.761Z,97.81
2022-08-19T11:19:31.180Z,98.44
2022-08-19T11:20:31.813Z,99.21
2022-08-19T11:21:32.786Z,99.41
2022-08-19T11:22:42.153Z,99.99
2022-08-19T11:23:33.643Z,99.99
2022-08-19T11:24:34.559Z,99.99
2022-08-19T11:25:34.489Z,99.99
2022-08-19T11:26:35.441Z,99.99
2022-08-19T11:27:36.376Z,99.99
2022-08-19T11:28:36.699Z,99.99
2022-08-19T11:29:37.335Z,99.99
2022-08-19T11:30:37.556Z,99.99
2022-08-19T11:31:37.467Z,99.99
2022-08-19T11:32:38.701Z,99.99
2022-08-19T11:33:39.469Z,99.99
2022-08-19T11:34:39.922Z,99.99
2022-08-19T11:35:40.548Z,99.99
2022-08-19T11:36:41.198Z,99.99
2022-08-19T11:37:42.105Z,99.99
2022-08-19T11:38:42.361Z,99.99
2022-08-19T11:39:42.943Z,99.99
2022-08-19T11:40:43.182Z,99.99
2022-08-19T11:41:43.795Z,99.99
2022-08-19T11:42:44.719Z,99.99
2022-08-19T11:43:45.710Z,99.99
2022-08-19T11:44:46.644Z,99.6
2022-08-19T11:45:47.576Z,99.6
2022-08-19T11:46:48.495Z,99.94
2022-08-19T11:47:48.993Z,99.26
2022-08-19T11:48:49.189Z,98.78
2022-08-19T11:49:50.250Z,99.74
2022-08-19T11:50:51.151Z,99.36
2022-08-19T11:51:52.099Z,99.16
2022-08-19T11:52:52.237Z,99.65
2022-08-19T11:53:53.305Z,99.99
2022-08-19T11:54:53.806Z,99.99
2022-08-19T11:55:54.414Z,99.36
2022-08-19T11:56:55.152Z,99.65
2022-08-19T11:57:56.018Z,99.65
2022-08-19T11:58:55.798Z,98.93
2022-08-19T11:59:56.711Z,99.89
2022-08-19T12:00:57.929Z,98.54
2022-08-19T12:01:59.864Z,99.65
2022-08-19T12:02:58.507Z,99.74
2022-08-19T12:03:59.715Z,99.55
2022-08-19T12:04:59.760Z,99.07
2022-08-19T12:06:00.774Z,98.58
2022-08-19T12:07:01.842Z,98.88
2022-08-19T12:08:02.500Z,99.07
2022-08-19T12:09:02.399Z,98.54
2022-08-19T12:10:03.604Z,98.54
2022-08-19T12:11:04.490Z,98.73
2022-08-19T12:12:05.140Z,98.44
2022-08-19T12:13:05.490Z,98.54
2022-08-19T12:14:05.710Z,98.3
2022-08-19T12:15:06.762Z,98.39
2022-08-19T12:16:07.774Z,98.97
2022-08-19T12:17:08.705Z,98.49
2022-08-19T12:18:08.970Z,98.49
2022-08-19T12:19:09.470Z,98.35
2022-08-19T12:20:09.888Z,98.54
2022-08-19T12:21:10.398Z,98.25
2022-08-19T12:22:11.318Z,98.73
2022-08-19T12:23:11.936Z,98.44
2022-08-19T12:24:13.161Z,98.73
2022-08-19T12:25:13.788Z,98.73
2022-08-19T12:26:14.634Z,98.25
2022-08-19T12:27:23.900Z,98.63
2022-08-19T12:28:15.556Z,99.6
2022-08-19T12:29:17.643Z,99.6
2022-08-19T12:30:16.563Z,99.99
2022-08-19T12:31:17.507Z,99.99
2022-08-19T12:32:17.944Z,99.99
2022-08-19T12:33:18.155Z,99.99
2022-08-19T12:34:19.365Z,98.93
2022-08-19T12:35:19.583Z,98.83
2022-08-19T12:36:20.016Z,98.05
2022-08-19T12:37:20.529Z,98.44
2022-08-19T12:38:21.155Z,98.63
2022-08-19T12:39:22.084Z,98.05
2022-08-19T12:40:22.768Z,98.25
2022-08-19T12:41:22.977Z,98.83
2022-08-19T12:42:23.642Z,98.15
2022-08-19T12:43:24.566Z,98.44
2022-08-19T12:44:29.052Z,98.05
2022-08-19T12:45:25.985Z,98.15
2022-08-19T12:46:27.695Z,98.54
2022-08-19T12:47:25.705Z,97.67
2022-08-19T12:48:40.142Z,98.44
2022-08-19T12:49:57.886Z,98.44
2022-08-19T12:50:48.620Z,98.83
2022-08-19T12:51:48.676Z,99.21
2022-08-19T12:52:49.601Z,99.21
2022-08-19T12:53:50.541Z,98.54
2022-08-19T12:54:51.796Z,99.11
2022-08-19T12:55:51.834Z,99.6
2022-08-19T12:56:52.192Z,99.69
2022-08-19T12:57:53.393Z,99.99
2022-08-19T12:58:55.836Z,99.99
2022-08-19T12:59:54.080Z,99.65
2022-08-19T13:00:54.724Z,99.99
2022-08-19T13:01:55.677Z,99.55
2022-08-19T13:02:55.874Z,99.36
2022-08-19T13:03:57.096Z,99.36
2022-08-19T13:04:58.017Z,98.93
2022-08-19T13:05:57.985Z,98.68
2022-08-19T13:06:58.487Z,98.35